Time;durP1;ratioP1;P1;durP2;ratioP2;P2;SDS_P1;SDS_P2;PMS_P1;PMS_P2;Temp;Humidity;BMP_temperature;BMP_pressure;BME280_temperature;BME280_humidity;BME280_pressure;Samples;Min_cycle;Max_cycle;Signal;HPM_P1;HPM_P2
2021/10/06 00:00:10;;;;;;;;;;;;;;;;;;1019339;29;882;-31
2021/10/06 00:00:43;;;;;;;;;;;;;;;;;;1019268;29;947;-31
2021/10/06 00:01:15;;;;;;;;;;;;;;;;;;1019022;29;915;-31
2021/10/06 00:01:45;;;;;;;;;;;;;;;;;;1019119;29;1022;-30
2021/10/06 00:02:16;;;;;;;;;;;;;;;;;;1019354;29;1191;-31
2021/10/06 00:02:46;;;;;;;;;;;;;;;;;;1018875;29;1301;-31
2021/10/06 00:03:16;;;;;;;;;;;;;;;;;;1019295;29;906;-31
2021/10/06 00:03:47;;;;;;;;;;;;;;;;;;1018949;29;943;-31
2021/10/06 00:04:17;;;;;;;;;;;;;;;;;;1018951;29;1057;-31
2021/10/06 00:04:47;;;;;;;;;;;;;;;;;;1019210;29;1118;-31
2021/10/06 00:05:18;;;;;;;;;;;;;;;;;;1019084;29;1054;-31
2021/10/06 00:05:48;;;;;;;;;;;;;;;;;;1019139;29;969;-29
2021/10/06 00:06:19;;;;;;;;;;;;;;;;;;1019262;29;1348;-31
2021/10/06 00:06:49;;;;;;;;;;;;;;;;;;1019076;29;1155;-31
2021/10/06 00:07:20;;;;;;;;;;;;;;;;;;1018602;29;873;-31
2021/10/06 00:07:50;;;;;;;;;;;;;;;;;;1017966;29;1553;-31
2021/10/06 00:08:20;;;;;;;;;;;;;;;;;;1018619;29;1064;-30
2021/10/06 00:08:54;;;;;;;;;;;;;;;;;;1018290;29;984;-30
2021/10/06 00:09:24;;;;;;;;;;;;;;;;;;1019244;29;940;-31
2021/10/06 00:09:54;;;;;;;;;;;;;;;;;;1019100;29;934;-31
2021/10/06 00:10:25;;;;;;;;;;;;;;;;;;1019168;29;1163;-31
2021/10/06 00:10:55;;;;;;;;;;;;;;;;;;1019114;29;1064;-30
2021/10/06 00:11:26;;;;;;;;;;;;;;;;;;1019170;29;1068;-31
2021/10/06 00:11:56;;;;;;;;;;;;;;;;;;1019141;29;824;-31
2021/10/06 00:12:26;;;;;;;;;;;;;;;;;;1019240;29;1192;-31
2021/10/06 00:13:00;;;;;;;;;;;;;;;;;;1019022;29;955;-31
2021/10/06 00:13:30;;;;;;;;;;;;;;;;;;1019199;29;1032;-30
2021/10/06 00:14:01;;;;;;;;;;;;;;;;;;1019339;29;863;-31
2021/10/06 00:14:31;;;;;;;;;;;;;;;;;;1019066;29;1170;-31
2021/10/06 00:15:03;;;;;;;;;;;;;;;;;;1019218;29;891;-30
2021/10/06 00:15:33;;;;;;;;;;;;;;;;;;1019042;29;962;-31
2021/10/06 00:16:12;;;;;;;;;;;;;;;;;;1019222;29;887;-31
2021/10/06 00:16:42;;;;;;;;;;;;;;;;;;1019387;29;819;-31
2021/10/06 00:17:13;;;;;;;;;;;;;;;;;;1019094;29;1033;-31
2021/10/06 00:17:46;;;;;;;;;;;;;;;;;;1019118;29;1047;-31
2021/10/06 00:18:19;;;;;;;;;;;;;;;;;;1019199;29;978;-30
2021/10/06 00:18:49;;;;;;;;;;;;;;;;;;1019105;29;1017;-31
2021/10/06 00:19:20;;;;;;;;;;;;;;;;;;1019148;29;1040;-31
2021/10/06 00:19:52;;;;;;;;;;;;;;;;;;1018914;29;1911;-31
2021/10/06 00:20:22;;;;;;;;;;;;;;;;;;1019166;29;919;-30
2021/10/06 00:20:53;;;;;;;;;;;;;;;;;;1019099;29;792;-31
2021/10/06 00:21:23;;;;;;;;;;;;;;;;;;1018911;29;1007;-31
2021/10/06 00:21:53;;;;;;;;;;;;;;;;;;1018629;29;1622;-31
2021/10/06 00:22:27;;;;;;;;;;;;;;;;;;1018596;29;915;-30
2021/10/06 00:22:57;;;;;;;;;;;;;;;;;;1018411;29;1388;-31
2021/10/06 00:23:29;;;;;;;;;;;;;;;;;;1019253;29;908;-31
2021/10/06 00:23:59;;;;;;;;;;;;;;;;;;1019052;29;1000;-31
2021/10/06 00:24:30;;;;;;;;;;;;;;;;;;1019219;29;962;-31
2021/10/06 00:25:01;;;;;;;;;;;;;;;;;;1018801;29;1429;-31
2021/10/06 00:25:31;;;;;;;;;;;;;;;;;;1019074;29;993;-31
2021/10/06 00:26:03;;;;;;;;;;;;;;;;;;1019152;29;980;-30
2021/10/06 00:26:39;;;;;;;;;;;;;;;;;;1019043;29;891;-31
2021/10/06 00:27:10;;;;;;;;;;;;;;;;;;1019165;29;871;-31
2021/10/06 00:27:40;;;;;;;;;;;;;;;;;;1019094;29;884;-31
2021/10/06 00:28:11;;;;;;;;;;;;;;;;;;1018738;29;1478;-31
2021/10/06 00:28:41;;;;;;;;;;;;;;;;;;1018563;29;1590;-31
2021/10/06 00:29:11;;;;;;;;;;;;;;;;;;1018585;29;1232;-31
2021/10/06 00:29:42;;;;;;;;;;;;;;;;;;1018693;29;970;-31
2021/10/06 00:30:13;;;;;;;;;;;;;;;;;;1018623;29;1009;-31
2021/10/06 00:30:45;;;;;;;;;;;;;;;;;;1019071;29;1186;-31
2021/10/06 00:31:16;;;;;;;;;;;;;;;;;;1019140;29;914;-31
2021/10/06 00:31:46;;;;;;;;;;;;;;;;;;1018771;29;971;-31
2021/10/06 00:32:17;;;;;;;;;;;;;;;;;;1019233;29;939;-31
2021/10/06 00:32:49;;;;;;;;;;;;;;;;;;1018309;29;1663;-31
2021/10/06 00:33:20;;;;;;;;;;;;;;;;;;1019159;29;1181;-31
2021/10/06 00:33:54;;;;;;;;;;;;;;;;;;1019043;29;987;-31
2021/10/06 00:34:24;;;;;;;;;;;;;;;;;;1019094;29;869;-31
2021/10/06 00:34:54;;;;;;;;;;;;;;;;;;1018360;29;955;-31
2021/10/06 00:35:25;;;;;;;;;;;;;;;;;;1018767;29;1016;-31
2021/10/06 00:35:56;;;;;;;;;;;;;;;;;;1018883;29;975;-31
2021/10/06 00:36:26;;;;;;;;;;;;;;;;;;1019289;29;973;-31
2021/10/06 00:37:00;;;;;;;;;;;;;;;;;;1018753;29;938;-31
2021/10/06 00:37:30;;;;;;;;;;;;;;;;;;1018646;29;1329;-31
2021/10/06 00:38:00;;;;;;;;;;;;;;;;;;1018952;29;994;-31
2021/10/06 00:38:31;;;;;;;;;;;;;;;;;;1017838;29;3556;-31
2021/10/06 00:39:01;;;;;;;;;;;;;;;;;;1015858;29;2550;-31
2021/10/06 00:39:32;;;;;;;;;;;;;;;;;;1019173;29;946;-31
2021/10/06 00:40:05;;;;;;;;;;;;;;;;;;1018906;29;1918;-31
2021/10/06 00:40:36;;;;;;;;;;;;;;;;;;1019096;29;866;-31
2021/10/06 00:41:06;;;;;;;;;;;;;;;;;;1018890;29;973;-31
2021/10/06 00:41:36;;;;;;;;;;;;;;;;;;1019084;29;995;-31
2021/10/06 00:42:09;;;;;;;;;;;;;;;;;;1018869;29;1186;-31
2021/10/06 00:42:40;;;;;;;;;;;;;;;;;;1019029;29;1025;-31
2021/10/06 00:43:10;;;;;;;;;;;;;;;;;;1018879;29;915;-30
2021/10/06 00:43:41;;;;;;;;;;;;;;;;;;1019186;29;832;-30
2021/10/06 00:44:15;;;;;;;;;;;;;;;;;;1018942;29;981;-31
2021/10/06 00:44:45;;;;;;;;;;;;;;;;;;1018988;29;1082;-31
2021/10/06 00:45:16;;;;;;;;;;;;;;;;;;1018837;29;997;-31
2021/10/06 00:45:52;;;;;;;;;;;;;;;;;;1018946;29;992;-30
2021/10/06 00:46:22;;;;;;;;;;;;;;;;;;1019138;29;788;-31
2021/10/06 00:46:52;;;;;;;;;;;;;;;;;;1018954;29;1186;-31
2021/10/06 00:47:23;;;;;;;;;;;;;;;;;;1018984;29;1133;-30
2021/10/06 00:47:53;;;;;;;;;;;;;;;;;;1018731;29;923;-30
2021/10/06 00:48:24;;;;;;;;;;;;;;;;;;1019326;29;855;-31
2021/10/06 00:48:54;;;;;;;;;;;;;;;;;;1018515;29;1442;-31
2021/10/06 00:49:24;;;;;;;;;;;;;;;;;;1019109;29;1057;-30
2021/10/06 00:49:54;;;;;;;;;;;;;;;;;;1018968;29;899;-31
2021/10/06 00:50:25;;;;;;;;;;;;;;;;;;1018863;29;1108;-31
2021/10/06 00:50:55;;;;;;;;;;;;;;;;;;1018879;29;1273;-31
2021/10/06 00:51:26;;;;;;;;;;;;;;;;;;1018589;29;1608;-31
2021/10/06 00:51:56;;;;;;;;;;;;;;;;;;1018775;29;1250;-30
2021/10/06 00:52:27;;;;;;;;;;;;;;;;;;1018550;29;1379;-31
2021/10/06 00:52:57;;;;;;;;;;;;;;;;;;1018395;29;962;-31
2021/10/06 00:53:27;;;;;;;;;;;;;;;;;;1018756;29;876;-31
2021/10/06 00:53:59;;;;;;;;;;;;;;;;;;1018740;29;862;-31
2021/10/06 00:54:30;;;;;;;;;;;;;;;;;;1018953;29;1050;-31
2021/10/06 00:55:00;;;;;;;;;;;;;;;;;;1018987;29;1138;-30
2021/10/06 00:55:31;;;;;;;;;;;;;;;;;;1018946;29;907;-31
2021/10/06 00:56:01;;;;;;;;;;;;;;;;;;1018595;29;1306;-31
2021/10/06 00:56:31;;;;;;;;;;;;;;;;;;1019059;29;1085;-31
2021/10/06 00:57:03;;;;;;;;;;;;;;;;;;1018741;29;946;-31
2021/10/06 00:57:33;;;;;;;;;;;;;;;;;;1018987;29;869;-31
2021/10/06 00:58:04;;;;;;;;;;;;;;;;;;1019011;29;832;-31
2021/10/06 00:58:37;;;;;;;;;;;;;;;;;;1019078;29;1672;-31
2021/10/06 00:59:07;;;;;;;;;;;;;;;;;;1018890;29;1051;-31
2021/10/06 00:59:38;;;;;;;;;;;;;;;;;;1018951;29;994;-30
2021/10/06 01:00:09;;;;;;;;;;;;;;;;;;1018839;29;1974;-31
2021/10/06 01:00:40;;;;;;;;;;;;;;;;;;1019093;29;935;-31
2021/10/06 01:01:10;;;;;;;;;;;;;;;;;;1018670;29;1443;-30
2021/10/06 01:01:40;;;;;;;;;;;;;;;;;;1019131;29;863;-31
2021/10/06 01:02:11;;;;;;;;;;;;;;;;;;1018873;29;895;-31
2021/10/06 01:02:44;;;;;;;;;;;;;;;;;;1015899;29;1243;-31
2021/10/06 01:03:17;;;;;;;;;;;;;;;;;;1014487;29;1336;-30
2021/10/06 01:03:48;;;;;;;;;;;;;;;;;;1014976;29;1373;-30
2021/10/06 01:04:18;;;;;;;;;;;;;;;;;;1015293;29;865;-30
2021/10/06 01:04:48;;;;;;;;;;;;;;;;;;1015014;29;1121;-30
2021/10/06 01:05:19;;;;;;;;;;;;;;;;;;1015001;29;980;-30
2021/10/06 01:05:49;;;;;;;;;;;;;;;;;;1014972;29;968;-29
2021/10/06 01:06:20;;;;;;;;;;;;;;;;;;1015015;29;622;-30
2021/10/06 01:06:50;;;;;;;;;;;;;;;;;;1014951;29;1065;-31
2021/10/06 01:07:21;;;;;;;;;;;;;;;;;;1014914;29;925;-30
2021/10/06 01:07:51;;;;;;;;;;;;;;;;;;1014998;29;859;-30
2021/10/06 01:08:22;;;;;;;;;;;;;;;;;;1015099;29;988;-31
2021/10/06 01:08:52;;;;;;;;;;;;;;;;;;1014849;29;882;-31
2021/10/06 01:09:26;;;;;;;;;;;;;;;;;;1015047;29;997;-30
2021/10/06 01:09:56;;;;;;;;;;;;;;;;;;1015005;29;961;-31
2021/10/06 01:10:27;;;;;;;;;;;;;;;;;;1015207;29;965;-30
2021/10/06 01:10:57;;;;;;;;;;;;;;;;;;1014896;29;946;-30
2021/10/06 01:11:28;;;;;;;;;;;;;;;;;;1014902;29;1076;-30
2021/10/06 01:11:59;;;;;;;;;;;;;;;;;;1014861;29;930;-31
2021/10/06 01:12:30;;;;;;;;;;;;;;;;;;1015148;29;978;-30
2021/10/06 01:13:01;;;;;;;;;;;;;;;;;;1014960;29;889;-30
2021/10/06 01:13:32;;;;;;;;;;;;;;;;;;1014146;29;1035;-30
2021/10/06 01:14:02;;;;;;;;;;;;;;;;;;1014228;29;922;-30
2021/10/06 01:14:33;;;;;;;;;;;;;;;;;;1014385;29;978;-30
2021/10/06 01:15:05;;;;;;;;;;;;;;;;;;1014330;29;1115;-31
2021/10/06 01:15:35;;;;;;;;;;;;;;;;;;1017339;29;1304;-30
2021/10/06 01:16:06;;;;;;;;;;;;;;;;;;1022087;29;902;-30
2021/10/06 01:16:36;;;;;;;;;;;;;;;;;;1022264;29;963;-30
2021/10/06 01:17:06;;;;;;;;;;;;;;;;;;1022056;29;1354;-30
2021/10/06 01:17:37;;;;;;;;;;;;;;;;;;1022091;29;914;-30
2021/10/06 01:18:07;;;;;;;;;;;;;;;;;;1018878;29;1046;-31
2021/10/06 01:18:38;;;;;;;;;;;;;;;;;;1018947;29;1271;-30
2021/10/06 01:19:18;;;;;;;;;;;;;;;;;;1018599;29;1266;-30
2021/10/06 01:19:49;;;;;;;;;;;;;;;;;;1018755;29;1906;-30
2021/10/06 01:20:19;;;;;;;;;;;;;;;;;;1018878;29;1589;-30
2021/10/06 01:20:49;;;;;;;;;;;;;;;;;;1018519;29;1375;-30
2021/10/06 01:21:20;;;;;;;;;;;;;;;;;;1018873;29;1296;-30
2021/10/06 01:21:51;;;;;;;;;;;;;;;;;;1018596;29;929;-30
2021/10/06 01:22:21;;;;;;;;;;;;;;;;;;1018903;29;1059;-30
2021/10/06 01:22:51;;;;;;;;;;;;;;;;;;1018854;29;986;-30
2021/10/06 01:23:22;;;;;;;;;;;;;;;;;;1018875;29;1060;-30
2021/10/06 01:23:54;;;;;;;;;;;;;;;;;;1018736;29;887;-30
2021/10/06 01:24:25;;;;;;;;;;;;;;;;;;1018986;29;961;-30
2021/10/06 01:24:55;;;;;;;;;;;;;;;;;;1018807;29;1011;-30
2021/10/06 01:25:25;;;;;;;;;;;;;;;;;;1018979;29;943;-30
2021/10/06 01:25:56;;;;;;;;;;;;;;;;;;1018274;29;1484;-30
2021/10/06 01:26:26;;;;;;;;;;;;;;;;;;1018967;29;1215;-30
2021/10/06 01:26:57;;;;;;;;;;;;;;;;;;1018777;29;979;-29
2021/10/06 01:27:28;;;;;;;;;;;;;;;;;;1018822;29;1422;-30
2021/10/06 01:27:58;;;;;;;;;;;;;;;;;;1018754;29;874;-30
2021/10/06 01:28:29;;;;;;;;;;;;;;;;;;1018982;29;807;-30
2021/10/06 01:28:59;;;;;;;;;;;;;;;;;;1018794;29;1123;-30
2021/10/06 01:29:30;;;;;;;;;;;;;;;;;;1018892;29;1054;-30
2021/10/06 01:30:00;;;;;;;;;;;;;;;;;;1018693;29;867;-31
2021/10/06 01:30:30;;;;;;;;;;;;;;;;;;1018795;29;863;-30
2021/10/06 01:31:01;;;;;;;;;;;;;;;;;;1018674;29;904;-30
2021/10/06 01:31:31;;;;;;;;;;;;;;;;;;1018552;29;1133;-30
2021/10/06 01:32:09;;;;;;;;;;;;;;;;;;1018846;29;960;-29
2021/10/06 01:32:40;;;;;;;;;;;;;;;;;;1018740;29;838;-30
2021/10/06 01:33:10;;;;;;;;;;;;;;;;;;1018830;29;992;-30
2021/10/06 01:33:43;;;;;;;;;;;;;;;;;;1018964;29;962;-30
2021/10/06 01:34:15;;;;;;;;;;;;;;;;;;1013967;29;1088;-34
2021/10/06 01:34:59;;;;;;;;;;;;;;;;;;1014177;29;973;-30
2021/10/06 01:35:29;;;;;;;;;;;;;;;;;;1013844;29;2746;-32
2021/10/06 01:35:59;;;;;;;;;;;;;;;;;;1016546;29;899;-32
2021/10/06 01:36:30;;;;;;;;;;;;;;;;;;1018862;29;1059;-32
2021/10/06 01:37:00;;;;;;;;;;;;;;;;;;1018737;29;930;-32
2021/10/06 01:37:31;;;;;;;;;;;;;;;;;;1018903;29;1240;-32
2021/10/06 01:38:01;;;;;;;;;;;;;;;;;;1018656;29;1003;-32
2021/10/06 01:38:31;;;;;;;;;;;;;;;;;;1018762;29;3612;-30
2021/10/06 01:39:02;;;;;;;;;;;;;;;;;;1018686;29;863;-31
2021/10/06 01:39:33;;;;;;;;;;;;;;;;;;1018890;29;897;-32
2021/10/06 01:40:05;;;;;;;;;;;;;;;;;;1018879;29;1977;-31
2021/10/06 01:40:35;;;;;;;;;;;;;;;;;;1018807;29;997;-31
2021/10/06 01:41:05;;;;;;;;;;;;;;;;;;1018722;29;902;-32
2021/10/06 01:41:36;;;;;;;;;;;;;;;;;;1018911;29;941;-32
2021/10/06 01:42:06;;;;;;;;;;;;;;;;;;1018809;29;984;-32
2021/10/06 01:42:37;;;;;;;;;;;;;;;;;;1018679;29;938;-31
2021/10/06 01:43:07;;;;;;;;;;;;;;;;;;1018623;29;1055;-31
2021/10/06 01:43:38;;;;;;;;;;;;;;;;;;1018973;29;914;-31
2021/10/06 01:44:11;;;;;;;;;;;;;;;;;;1018917;29;907;-32
2021/10/06 01:44:41;;;;;;;;;;;;;;;;;;1018924;29;990;-30
2021/10/06 01:45:20;;;;;;;;;;;;;;;;;;1018542;29;909;-31
2021/10/06 01:45:51;;;;;;;;;;;;;;;;;;1018641;29;1028;-32
2021/10/06 01:46:21;;;;;;;;;;;;;;;;;;1018628;29;887;-32
2021/10/06 01:46:52;;;;;;;;;;;;;;;;;;1018692;29;1359;-32
2021/10/06 01:47:24;;;;;;;;;;;;;;;;;;1018603;29;1005;-31
2021/10/06 01:48:02;;;;;;;;;;;;;;;;;;1018646;29;1234;-32
2021/10/06 01:48:32;;;;;;;;;;;;;;;;;;1018851;29;845;-32
2021/10/06 01:49:02;;;;;;;;;;;;;;;;;;1018720;29;935;-32
2021/10/06 01:49:33;;;;;;;;;;;;;;;;;;1018988;29;991;-32
2021/10/06 01:50:03;;;;;;;;;;;;;;;;;;1018592;29;980;-32
2021/10/06 01:50:34;;;;;;;;;;;;;;;;;;1018915;29;903;-32
2021/10/06 01:51:04;;;;;;;;;;;;;;;;;;1018763;29;1313;-32
2021/10/06 01:51:35;;;;;;;;;;;;;;;;;;1018709;29;1017;-31
2021/10/06 01:52:05;;;;;;;;;;;;;;;;;;1013931;29;1046;-31
2021/10/06 01:52:36;;;;;;;;;;;;;;;;;;1013801;29;1807;-31
2021/10/06 01:53:06;;;;;;;;;;;;;;;;;;1014194;29;1373;-31
2021/10/06 01:53:37;;;;;;;;;;;;;;;;;;1014088;29;1018;-31
2021/10/06 01:54:08;;;;;;;;;;;;;;;;;;1018559;29;964;-31
2021/10/06 01:54:38;;;;;;;;;;;;;;;;;;1018966;29;863;-32
2021/10/06 01:55:08;;;;;;;;;;;;;;;;;;1018753;29;999;-31
2021/10/06 01:55:39;;;;;;;;;;;;;;;;;;1018605;29;976;-31
2021/10/06 01:56:09;;;;;;;;;;;;;;;;;;1018650;29;1054;-30
2021/10/06 01:56:40;;;;;;;;;;;;;;;;;;1018865;29;946;-32
2021/10/06 01:57:10;;;;;;;;;;;;;;;;;;1018739;29;877;-31
2021/10/06 01:57:41;;;;;;;;;;;;;;;;;;1018716;29;884;-32
2021/10/06 01:58:13;;;;;;;;;;;;;;;;;;1018696;29;945;-32
2021/10/06 01:58:47;;;;;;;;;;;;;;;;;;1018945;29;1182;-32
2021/10/06 01:59:17;;;;;;;;;;;;;;;;;;1018695;29;998;-32
2021/10/06 01:59:47;;;;;;;;;;;;;;;;;;1018595;29;1968;-31
2021/10/06 02:00:17;;;;;;;;;;;;;;;;;;1018719;29;1009;-28
2021/10/06 02:00:49;;;;;;;;;;;;;;;;;;1018847;29;1390;-30
2021/10/06 02:01:19;;;;;;;;;;;;;;;;;;1018784;29;877;-32
2021/10/06 02:01:49;;;;;;;;;;;;;;;;;;1018411;29;967;-31
2021/10/06 02:02:20;;;;;;;;;;;;;;;;;;1018474;29;1243;-32
2021/10/06 02:02:51;;;;;;;;;;;;;;;;;;1014002;29;1124;-32
2021/10/06 02:03:21;;;;;;;;;;;;;;;;;;1014128;29;870;-32
2021/10/06 02:03:51;;;;;;;;;;;;;;;;;;1013976;29;987;-32
2021/10/06 02:04:22;;;;;;;;;;;;;;;;;;1014292;29;827;-32
2021/10/06 02:04:52;;;;;;;;;;;;;;;;;;1014800;29;1172;-31
2021/10/06 02:05:22;;;;;;;;;;;;;;;;;;1014951;29;1741;-31
2021/10/06 02:05:53;;;;;;;;;;;;;;;;;;1014528;29;1074;-31
2021/10/06 02:06:23;;;;;;;;;;;;;;;;;;1015024;29;805;-32
2021/10/06 02:06:54;;;;;;;;;;;;;;;;;;1014754;29;923;-32
2021/10/06 02:07:24;;;;;;;;;;;;;;;;;;1014772;29;1072;-31
2021/10/06 02:07:55;;;;;;;;;;;;;;;;;;1014747;29;936;-31
2021/10/06 02:08:25;;;;;;;;;;;;;;;;;;1014947;29;808;-32
2021/10/06 02:08:55;;;;;;;;;;;;;;;;;;1014794;29;877;-32
2021/10/06 02:09:26;;;;;;;;;;;;;;;;;;1014646;29;893;-31
2021/10/06 02:09:56;;;;;;;;;;;;;;;;;;1014681;29;795;-32
2021/10/06 02:10:27;;;;;;;;;;;;;;;;;;1014841;29;975;-32
2021/10/06 02:10:57;;;;;;;;;;;;;;;;;;1014638;29;906;-32
2021/10/06 02:11:27;;;;;;;;;;;;;;;;;;1014731;29;909;-32
2021/10/06 02:11:58;;;;;;;;;;;;;;;;;;1018520;29;1060;-32
2021/10/06 02:12:28;;;;;;;;;;;;;;;;;;1018379;29;1211;-32
2021/10/06 02:12:59;;;;;;;;;;;;;;;;;;1018588;29;842;-32
2021/10/06 02:13:29;;;;;;;;;;;;;;;;;;1018619;29;1096;-32
2021/10/06 02:14:00;;;;;;;;;;;;;;;;;;1018635;29;859;-32
2021/10/06 02:14:30;;;;;;;;;;;;;;;;;;1018660;29;996;-32
2021/10/06 02:15:00;;;;;;;;;;;;;;;;;;1018468;29;1369;-32
2021/10/06 02:15:31;;;;;;;;;;;;;;;;;;1018655;29;1206;-31
2021/10/06 02:16:01;;;;;;;;;;;;;;;;;;1018712;29;858;-32
2021/10/06 02:16:32;;;;;;;;;;;;;;;;;;1018623;29;1053;-32
2021/10/06 02:17:02;;;;;;;;;;;;;;;;;;1018480;29;934;-32
2021/10/06 02:17:32;;;;;;;;;;;;;;;;;;1018427;29;997;-31
2021/10/06 02:18:03;;;;;;;;;;;;;;;;;;1018734;29;910;-32
2021/10/06 02:18:34;;;;;;;;;;;;;;;;;;1018636;29;1332;-32
2021/10/06 02:19:04;;;;;;;;;;;;;;;;;;1018433;29;934;-32
2021/10/06 02:19:34;;;;;;;;;;;;;;;;;;1018668;29;832;-32
2021/10/06 02:20:05;;;;;;;;;;;;;;;;;;1018586;29;1972;-32
2021/10/06 02:20:36;;;;;;;;;;;;;;;;;;1021740;29;1017;-32
2021/10/06 02:21:07;;;;;;;;;;;;;;;;;;1021849;29;1198;-32
2021/10/06 02:21:37;;;;;;;;;;;;;;;;;;1021898;29;962;-32
2021/10/06 02:22:08;;;;;;;;;;;;;;;;;;1021894;29;1122;-32
2021/10/06 02:22:38;;;;;;;;;;;;;;;;;;1018459;29;912;-32
2021/10/06 02:23:09;;;;;;;;;;;;;;;;;;1018377;29;867;-32
2021/10/06 02:23:39;;;;;;;;;;;;;;;;;;1018881;29;883;-32
2021/10/06 02:24:09;;;;;;;;;;;;;;;;;;1018629;29;891;-32
2021/10/06 02:24:40;;;;;;;;;;;;;;;;;;1018771;29;887;-32
2021/10/06 02:25:10;;;;;;;;;;;;;;;;;;1018558;29;950;-32
2021/10/06 02:25:41;;;;;;;;;;;;;;;;;;1018455;29;1529;-32
2021/10/06 02:26:11;;;;;;;;;;;;;;;;;;1018694;29;1251;-32
2021/10/06 02:26:41;;;;;;;;;;;;;;;;;;1018676;29;1024;-32
2021/10/06 02:27:12;;;;;;;;;;;;;;;;;;1018460;29;989;-31
2021/10/06 02:27:42;;;;;;;;;;;;;;;;;;1018431;29;821;-32
2021/10/06 02:28:13;;;;;;;;;;;;;;;;;;1018165;29;1155;-32
2021/10/06 02:28:43;;;;;;;;;;;;;;;;;;1018432;29;872;-31
2021/10/06 02:29:13;;;;;;;;;;;;;;;;;;1018280;29;811;-31
2021/10/06 02:29:44;;;;;;;;;;;;;;;;;;1018764;29;991;-31
2021/10/06 02:30:15;;;;;;;;;;;;;;;;;;1018479;29;1167;-32
2021/10/06 02:30:45;;;;;;;;;;;;;;;;;;1018598;29;1296;-31
2021/10/06 02:31:15;;;;;;;;;;;;;;;;;;1018760;29;850;-31
2021/10/06 02:31:46;;;;;;;;;;;;;;;;;;1006955;29;2480;-31
2021/10/06 02:32:17;;;;;;;;;;;;;;;;;;1013560;29;1426;-31
2021/10/06 02:32:47;;;;;;;;;;;;;;;;;;1013753;29;1066;-31
2021/10/06 02:33:17;;;;;;;;;;;;;;;;;;1014124;29;1120;-31
2021/10/06 02:33:48;;;;;;;;;;;;;;;;;;1017761;29;1269;-31
2021/10/06 02:34:18;;;;;;;;;;;;;;;;;;1014959;29;953;-32
2021/10/06 02:34:49;;;;;;;;;;;;;;;;;;1014622;29;876;-31
2021/10/06 02:35:19;;;;;;;;;;;;;;;;;;1014921;29;860;-31
2021/10/06 02:35:49;;;;;;;;;;;;;;;;;;1014669;29;961;-32
2021/10/06 02:36:20;;;;;;;;;;;;;;;;;;1014837;29;1135;-31
2021/10/06 02:36:52;;;;;;;;;;;;;;;;;;1014638;29;1043;-31
2021/10/06 02:37:22;;;;;;;;;;;;;;;;;;1014881;29;787;-31
2021/10/06 02:37:52;;;;;;;;;;;;;;;;;;1014739;29;1069;-31
2021/10/06 02:38:23;;;;;;;;;;;;;;;;;;1014709;29;3525;-31
2021/10/06 02:38:53;;;;;;;;;;;;;;;;;;1014513;29;1310;-31
2021/10/06 02:39:23;;;;;;;;;;;;;;;;;;1014899;29;1156;-31
2021/10/06 02:39:54;;;;;;;;;;;;;;;;;;1014541;29;1911;-31
2021/10/06 02:40:24;;;;;;;;;;;;;;;;;;1014912;29;959;-31
2021/10/06 02:40:54;;;;;;;;;;;;;;;;;;1014726;29;902;-31
2021/10/06 02:41:25;;;;;;;;;;;;;;;;;;1014818;29;920;-31
2021/10/06 02:41:55;;;;;;;;;;;;;;;;;;1014644;29;948;-31
2021/10/06 02:42:25;;;;;;;;;;;;;;;;;;1014419;29;1291;-30
2021/10/06 02:42:56;;;;;;;;;;;;;;;;;;1016635;29;1247;-31
2021/10/06 02:43:26;;;;;;;;;;;;;;;;;;1018877;29;1317;-31
2021/10/06 02:43:56;;;;;;;;;;;;;;;;;;1018368;29;968;-31
2021/10/06 02:44:27;;;;;;;;;;;;;;;;;;1018604;29;1209;-30
2021/10/06 02:44:57;;;;;;;;;;;;;;;;;;1018672;29;890;-31
2021/10/06 02:45:27;;;;;;;;;;;;;;;;;;1018854;29;937;-31
2021/10/06 02:45:58;;;;;;;;;;;;;;;;;;1018465;29;895;-31
2021/10/06 02:46:28;;;;;;;;;;;;;;;;;;1018820;29;918;-31
2021/10/06 02:46:59;;;;;;;;;;;;;;;;;;1018527;29;1042;-31
2021/10/06 02:47:29;;;;;;;;;;;;;;;;;;1018718;29;876;-31
2021/10/06 02:47:59;;;;;;;;;;;;;;;;;;1018333;29;907;-31
2021/10/06 02:48:30;;;;;;;;;;;;;;;;;;1018883;29;929;-31
2021/10/06 02:49:00;;;;;;;;;;;;;;;;;;1018633;29;975;-31
2021/10/06 02:49:31;;;;;;;;;;;;;;;;;;1018565;29;926;-31
2021/10/06 02:50:02;;;;;;;;;;;;;;;;;;1018097;29;1119;-31
2021/10/06 02:50:32;;;;;;;;;;;;;;;;;;1014396;29;1226;-31
2021/10/06 02:51:02;;;;;;;;;;;;;;;;;;1014361;29;1105;-31
2021/10/06 02:51:33;;;;;;;;;;;;;;;;;;1014554;29;869;-31
2021/10/06 02:52:03;;;;;;;;;;;;;;;;;;1017602;29;1629;-31
2021/10/06 02:52:34;;;;;;;;;;;;;;;;;;1018730;29;1053;-31
2021/10/06 02:53:04;;;;;;;;;;;;;;;;;;1018534;29;1718;-31
2021/10/06 02:53:34;;;;;;;;;;;;;;;;;;1018713;29;932;-31
2021/10/06 02:54:05;;;;;;;;;;;;;;;;;;1018652;29;1384;-30
2021/10/06 02:54:35;;;;;;;;;;;;;;;;;;1018694;29;815;-31
2021/10/06 02:55:06;;;;;;;;;;;;;;;;;;1018681;29;1150;-31
2021/10/06 02:55:37;;;;;;;;;;;;;;;;;;1018679;29;1289;-31
2021/10/06 02:56:07;;;;;;;;;;;;;;;;;;1018582;29;922;-31
2021/10/06 02:56:37;;;;;;;;;;;;;;;;;;1018691;29;936;-31
2021/10/06 02:57:08;;;;;;;;;;;;;;;;;;1018461;29;973;-33
2021/10/06 02:57:38;;;;;;;;;;;;;;;;;;1018673;29;933;-32
2021/10/06 02:58:09;;;;;;;;;;;;;;;;;;1017803;29;1025;-31
2021/10/06 02:58:39;;;;;;;;;;;;;;;;;;1018426;29;1271;-30
2021/10/06 02:59:09;;;;;;;;;;;;;;;;;;1018550;29;1148;-31
2021/10/06 02:59:40;;;;;;;;;;;;;;;;;;1018618;29;1096;-30
2021/10/06 03:00:11;;;;;;;;;;;;;;;;;;1019374;29;1976;-31
2021/10/06 03:00:41;;;;;;;;;;;;;;;;;;1019185;29;1159;-31
2021/10/06 03:01:11;;;;;;;;;;;;;;;;;;1016205;29;1011;-32
2021/10/06 03:01:41;;;;;;;;;;;;;;;;;;1015541;29;1063;-31
2021/10/06 03:02:12;;;;;;;;;;;;;;;;;;1016295;29;1111;-32
2021/10/06 03:02:42;;;;;;;;;;;;;;;;;;1019870;29;1371;-32
2021/10/06 03:03:13;;;;;;;;;;;;;;;;;;1022817;29;957;-32
2021/10/06 03:03:43;;;;;;;;;;;;;;;;;;1023344;29;903;-31
2021/10/06 03:04:14;;;;;;;;;;;;;;;;;;1023448;28;901;-32
2021/10/06 03:04:44;;;;;;;;;;;;;;;;;;1023366;29;951;-32
2021/10/06 03:05:14;;;;;;;;;;;;;;;;;;1023149;29;946;-32
2021/10/06 03:05:45;;;;;;;;;;;;;;;;;;1023505;29;842;-32
2021/10/06 03:06:15;;;;;;;;;;;;;;;;;;1023223;29;1014;-32
2021/10/06 03:06:45;;;;;;;;;;;;;;;;;;1023235;29;911;-32
2021/10/06 03:07:16;;;;;;;;;;;;;;;;;;1023210;29;1035;-31
2021/10/06 03:07:46;;;;;;;;;;;;;;;;;;1022877;29;1106;-32
2021/10/06 03:08:16;;;;;;;;;;;;;;;;;;1019430;29;996;-32
2021/10/06 03:08:47;;;;;;;;;;;;;;;;;;1019262;29;938;-32
2021/10/06 03:09:17;;;;;;;;;;;;;;;;;;1019201;29;945;-31
2021/10/06 03:09:48;;;;;;;;;;;;;;;;;;1019410;29;844;-32
2021/10/06 03:10:18;;;;;;;;;;;;;;;;;;1019354;29;1072;-31
2021/10/06 03:10:48;;;;;;;;;;;;;;;;;;1019298;29;1072;-31
2021/10/06 03:11:19;;;;;;;;;;;;;;;;;;1019198;29;1143;-31
2021/10/06 03:11:49;;;;;;;;;;;;;;;;;;1019227;29;1024;-31
2021/10/06 03:12:19;;;;;;;;;;;;;;;;;;1019543;29;1135;-32
2021/10/06 03:12:50;;;;;;;;;;;;;;;;;;1022058;29;1047;-32
2021/10/06 03:13:21;;;;;;;;;;;;;;;;;;1022669;29;880;-31
2021/10/06 03:13:51;;;;;;;;;;;;;;;;;;1022532;29;1220;-32
2021/10/06 03:14:21;;;;;;;;;;;;;;;;;;1022669;29;953;-32
2021/10/06 03:14:52;;;;;;;;;;;;;;;;;;1019129;29;831;-32
2021/10/06 03:15:22;;;;;;;;;;;;;;;;;;1019454;29;812;-32
2021/10/06 03:15:54;;;;;;;;;;;;;;;;;;1019147;29;1103;-32
2021/10/06 03:16:24;;;;;;;;;;;;;;;;;;1019517;29;1070;-32
2021/10/06 03:16:54;;;;;;;;;;;;;;;;;;1019039;29;1104;-32
2021/10/06 03:17:25;;;;;;;;;;;;;;;;;;1019436;29;787;-32
2021/10/06 03:17:55;;;;;;;;;;;;;;;;;;1019215;29;933;-32
2021/10/06 03:18:26;;;;;;;;;;;;;;;;;;1019209;29;1099;-32
2021/10/06 03:18:56;;;;;;;;;;;;;;;;;;1019130;29;983;-31
2021/10/06 03:19:26;;;;;;;;;;;;;;;;;;1019176;29;1549;-31
2021/10/06 03:19:57;;;;;;;;;;;;;;;;;;1018965;29;1911;-32
2021/10/06 03:20:27;;;;;;;;;;;;;;;;;;1022522;29;1401;-32
2021/10/06 03:20:58;;;;;;;;;;;;;;;;;;1022049;29;1161;-31
2021/10/06 03:21:29;;;;;;;;;;;;;;;;;;1022763;29;822;-32
2021/10/06 03:22:00;;;;;;;;;;;;;;;;;;1022472;29;948;-32
2021/10/06 03:22:30;;;;;;;;;;;;;;;;;;1019109;29;1043;-32
2021/10/06 03:23:03;;;;;;;;;;;;;;;;;;1019308;29;771;-32
2021/10/06 03:23:33;;;;;;;;;;;;;;;;;;1019467;29;823;-32
2021/10/06 03:24:03;;;;;;;;;;;;;;;;;;1019120;29;1027;-32
2021/10/06 03:24:34;;;;;;;;;;;;;;;;;;1019298;29;995;-32
2021/10/06 03:25:05;;;;;;;;;;;;;;;;;;1019198;29;838;-32
2021/10/06 03:25:35;;;;;;;;;;;;;;;;;;1019345;29;1001;-32
2021/10/06 03:26:05;;;;;;;;;;;;;;;;;;1019159;29;1061;-32
2021/10/06 03:26:36;;;;;;;;;;;;;;;;;;1019145;29;1067;-32
2021/10/06 03:27:06;;;;;;;;;;;;;;;;;;1019331;29;973;-32
2021/10/06 03:27:37;;;;;;;;;;;;;;;;;;1018790;29;1300;-32
2021/10/06 03:28:07;;;;;;;;;;;;;;;;;;1018248;29;2651;-33
2021/10/06 03:28:38;;;;;;;;;;;;;;;;;;1018711;29;855;-32
2021/10/06 03:29:08;;;;;;;;;;;;;;;;;;1018736;29;985;-32
2021/10/06 03:29:39;;;;;;;;;;;;;;;;;;1010632;29;942;-32
2021/10/06 03:30:10;;;;;;;;;;;;;;;;;;1014282;29;913;-32
2021/10/06 03:30:40;;;;;;;;;;;;;;;;;;1014357;29;1041;-32
2021/10/06 03:31:10;;;;;;;;;;;;;;;;;;1014504;29;905;-32
2021/10/06 03:31:41;;;;;;;;;;;;;;;;;;1019026;29;1666;-32
2021/10/06 03:32:12;;;;;;;;;;;;;;;;;;1019013;29;988;-32
2021/10/06 03:32:42;;;;;;;;;;;;;;;;;;1019187;29;874;-32
2021/10/06 03:33:13;;;;;;;;;;;;;;;;;;1019206;29;985;-32
2021/10/06 03:33:43;;;;;;;;;;;;;;;;;;1019213;29;1170;-32
2021/10/06 03:34:13;;;;;;;;;;;;;;;;;;1018690;29;1342;-32
2021/10/06 03:34:44;;;;;;;;;;;;;;;;;;1019412;29;1169;-32
2021/10/06 03:35:18;;;;;;;;;;;;;;;;;;1019078;29;1134;-32
2021/10/06 03:35:48;;;;;;;;;;;;;;;;;;1019236;29;925;-32